Address 0x47837b9d96a7ad8189edc8d7524ca4673965949d

 
 
Txn Hash Method
Block
From
To
Value [Txn Fee]
0xb0c436219a893c4054fd26ee47b704aa53d0edc498c7562edf29b18b2245e96bDeposit120928042021-10-26 0:39:371 day 20 hrs ago0x47837b9d96a7ad8189edc8d7524ca4673965949dOUT 0xef9b0d8cd1ae332894cd9cfd0f256b5f94f9435a0 BNB0.00046611
0x60b30fbbab1826e04f8f911209da473290c71d9748b45ec655097878932721e7Approve120927952021-10-26 0:39:101 day 20 hrs ago0x47837b9d96a7ad8189edc8d7524ca4673965949dOUT PancakeSwap V2: ETB0 BNB0.00022077
0xe4ee6a795cd0b5058d4da6b949cffd6d6adee7b603720c3cca45bdbbcd7bd3e0Add Liquidity120927722021-10-26 0:38:011 day 20 hrs ago0x47837b9d96a7ad8189edc8d7524ca4673965949dOUT PancakeSwap: Router v20 BNB0.000868075
0xe6e5b3df8b4282e8e9f954ac384e977d2a9163329cfe8b2c55a605a500fae067Claim120927482021-10-26 0:36:491 day 20 hrs ago0x47837b9d96a7ad8189edc8d7524ca4673965949dOUT 0xef9b0d8cd1ae332894cd9cfd0f256b5f94f9435a0 BNB0.000351535
0x7b5ef24327e03b4dbcf1b846dbda0600b225458d86938b8364e785df5c242f04Transfer120543252021-10-24 16:23:153 days 4 hrs ago0x47837b9d96a7ad8189edc8d7524ca4673965949dOUT Binance: WBNB Token0 BNB0.00025909
0x1cac0836d33fedcc2ee88d213f132ce2de04c3dd4f31341775cbfa3a57735fc4Transfer120298022021-10-23 19:37:034 days 1 hr ago0x47837b9d96a7ad8189edc8d7524ca4673965949dOUT0xaebdb273176475a33d295070726e7d0a3c5a64860.2 BNB0.000105
0x238b898aa45f3131cc8da27b0a3d48d505ab57ae40046ac2c53b3f89c5af827aTransfer119247152021-10-20 2:41:107 days 17 hrs ago0x47837b9d96a7ad8189edc8d7524ca4673965949dOUT0xaebdb273176475a33d295070726e7d0a3c5a64860.3 BNB0.000105
0x3f1db190b0651007141ba4aa330fdafb15d9a969981388244c8194978594d985Deposit119089832021-10-19 13:01:168 days 7 hrs ago0x47837b9d96a7ad8189edc8d7524ca4673965949dOUT 0xef9b0d8cd1ae332894cd9cfd0f256b5f94f9435a0 BNB0.00046611
0x972592fa2bd36d249c1bfffe553159b09b035dfc88d7ef9510ff9caa75402249Approve119089752021-10-19 13:00:528 days 7 hrs ago0x47837b9d96a7ad8189edc8d7524ca4673965949dOUT PancakeSwap V2: ETB0 BNB0.00022077
0x52b5edd347fbe6ade7c768265ec7ba6aae3a3b85aa84f45fda55f1819d1e0225Add Liquidity119089602021-10-19 13:00:078 days 7 hrs ago0x47837b9d96a7ad8189edc8d7524ca4673965949dOUT PancakeSwap: Router v20 BNB0.000868255
0xe145cb0b048b9873726aa408e333913dd8ce4777b1abc9bb0a0945f5f9f75420Claim119088262021-10-19 12:53:248 days 7 hrs ago0x47837b9d96a7ad8189edc8d7524ca4673965949dOUT 0xef9b0d8cd1ae332894cd9cfd0f256b5f94f9435a0 BNB0.000351535
0x218421ba3b0e339d523ea3d52551f16d2b0f35842f6279b42650dd3352c32ea2Deposit117253012021-10-13 2:52:1214 days 17 hrs ago0x47837b9d96a7ad8189edc8d7524ca4673965949dOUT 0xef9b0d8cd1ae332894cd9cfd0f256b5f94f9435a0 BNB0.00046611
0x8bd417abc15099b0cc1b81b1d218a9c824887326e398c87fb0c32fe7b3a603c5Approve117252942021-10-13 2:51:5114 days 17 hrs ago0x47837b9d96a7ad8189edc8d7524ca4673965949dOUT PancakeSwap V2: ETB0 BNB0.00022077
0x386b35ead3c55ca56e1710483f72ac7c90ae51fc799f0d4915fbbbd48ca4c7c1Add Liquidity117252782021-10-13 2:51:0314 days 17 hrs ago0x47837b9d96a7ad8189edc8d7524ca4673965949dOUT PancakeSwap: Router v20 BNB0.000868135
0x1b93e52d55feb27f5c57347bcd48c35f0b15c18183a20d50ce3f313a71bfef13Claim117252092021-10-13 2:47:3614 days 17 hrs ago0x47837b9d96a7ad8189edc8d7524ca4673965949dOUT 0xef9b0d8cd1ae332894cd9cfd0f256b5f94f9435a0 BNB0.000351535
0x6aa17ce4aae9ba6fb84aaf7c430e27072ac0941897e54d89b79602ed5b695783Withdraw117252022021-10-13 2:47:1514 days 17 hrs ago0x47837b9d96a7ad8189edc8d7524ca4673965949dOUT Binance: WBNB Token0 BNB0.00018652
0xdffa03f0befb6dead65eb0ffa5806315dd4b771de1ed0972c31b18ba0ef45e35Withdraw117251972021-10-13 2:47:0014 days 17 hrs ago0x47837b9d96a7ad8189edc8d7524ca4673965949dOUT Binance: WBNB Token0 BNB0.00018652
0xe7f21374c3713d078a93dddb0b859cc41a86a2a514504a1ff8c7cc58827a8b89Deposit116077372021-10-08 23:55:0518 days 20 hrs ago0x47837b9d96a7ad8189edc8d7524ca4673965949dOUT 0xef9b0d8cd1ae332894cd9cfd0f256b5f94f9435a0 BNB0.00046611
0x2d1b9f8e61b5b215971f4f6da715cd74b4d907b796efde5a7fd37b6d91a932f3Approve116077302021-10-08 23:54:4418 days 20 hrs ago0x47837b9d96a7ad8189edc8d7524ca4673965949dOUT PancakeSwap V2: ETB0 BNB0.00022077
0x07ffe1b0f4523cebe4e5396363a4cff721c4890701d2e8bcfd726c045b41b6e2Add Liquidity116076872021-10-08 23:52:3518 days 20 hrs ago0x47837b9d96a7ad8189edc8d7524ca4673965949dOUT PancakeSwap: Router v20 BNB0.00081064
0x8f57c36717ebad38327ac2fd1e6938fb2cd135b6e507cadf5754a82c3c83ffe5Deposit116076432021-10-08 23:50:2318 days 20 hrs ago0x47837b9d96a7ad8189edc8d7524ca4673965949dOUT Binance: WBNB Token1.864497203962003 BNB0.00014369
0x3f55d6055bcd91e9686dcff9247148cb417ca28ad92f749dea819b504db603c1Transfer116075982021-10-08 23:48:0818 days 20 hrs ago0xaebdb273176475a33d295070726e7d0a3c5a6486 IN 0x47837b9d96a7ad8189edc8d7524ca4673965949d1.757478983962003 BNB0.000105
0x4e95554d2516162070690106529354b6023a5da97dc2bda55a735e18d794f363Deposit116065892021-10-08 22:57:3918 days 21 hrs ago0x47837b9d96a7ad8189edc8d7524ca4673965949dOUT 0xef9b0d8cd1ae332894cd9cfd0f256b5f94f9435a0 BNB0.000429855
0x0d85ba0ad1d7a2d03bef84b79346878d0385b5734b7d698676d5655c5e313c1bApprove116065822021-10-08 22:57:1818 days 21 hrs ago0x47837b9d96a7ad8189edc8d7524ca4673965949dOUT PancakeSwap V2: ETB0 BNB0.00022077
0x5bd8f453c00510f7e55d7d2624e232c4dfae545934cebdb77419a9b8ee44fbe1Add Liquidity116065472021-10-08 22:55:3318 days 21 hrs ago0x47837b9d96a7ad8189edc8d7524ca4673965949dOUT PancakeSwap: Router v20 BNB0.00088437
[ Download CSV Export 
Latest 2 internal transactions
Parent Txn Hash Block From To Value
0x6aa17ce4aae9ba6fb84aaf7c430e27072ac0941897e54d89b79602ed5b695783117252022021-10-13 2:47:1514 days 17 hrs ago Binance: WBNB Token0x47837b9d96a7ad8189edc8d7524ca4673965949d0.65 BNB
0xdffa03f0befb6dead65eb0ffa5806315dd4b771de1ed0972c31b18ba0ef45e35117251972021-10-13 2:47:0014 days 17 hrs ago Binance: WBNB Token0x47837b9d96a7ad8189edc8d7524ca4673965949d0.65 BNB
[ Download CSV Export 
Loading

Contract Name:
0 BNB

Compiler Version
0

Optimization Enabled:
0 BNB

Other Settings:
-NA-
Block Transaction Gas Used Reward
Age Block Fee Address BC Fee Address Voting Power Jailed Incoming
Block Uncle Number Difficulty Gas Used Reward
Loading
Loading
Make sure to use the "Vote Down" button for any spammy posts, and the "Vote Up" for interesting conversations.